Time;durP1;ratioP1;P1;durP2;ratioP2;P2;SDS_P1;SDS_P2;PMS_P1;PMS_P2;Temp;Humidity;BMP_temperature;BMP_pressure;BME280_temperature;BME280_humidity;BME280_pressure;Samples;Min_cycle;Max_cycle;Signal;HPM_P1;HPM_P2
2022/10/19 00:04:00;;;;;;;6.82;3.95;;;;;;;;;;10524681;28;20442;-79
2022/10/19 00:09:07;;;;;;;5.73;3.47;;;;;;;;;;10525084;28;20044;-80
2022/10/19 00:14:14;;;;;;;6.40;3.58;;;;;;;;;;10526409;28;20043;-80
2022/10/19 00:19:20;;;;;;;4.97;3.33;;;;;;;;;;10541545;28;20044;-80
2022/10/19 00:24:24;;;;;;;5.85;3.03;;;;;;;;;;10522919;28;20047;-79
2022/10/19 00:29:27;;;;;;;6.38;3.60;;;;;;;;;;10525100;28;20043;-81
2022/10/19 00:34:32;;;;;;;5.82;3.75;;;;;;;;;;10522996;28;20036;-82
2022/10/19 00:39:35;;;;;;;6.50;3.65;;;;;;;;;;10523863;28;20032;-79
2022/10/19 00:45:05;;;;;;;4.80;3.15;;;;;;;;;;10516694;28;20036;-83
2022/10/19 00:50:12;;;;;;;6.50;3.95;;;;;;;;;;10523896;28;20036;-80
2022/10/19 00:55:16;;;;;;;8.18;3.67;;;;;;;;;;10525187;28;20048;-80
2022/10/19 01:00:19;;;;;;;6.22;3.70;;;;;;;;;;10523619;28;20114;-82
2022/10/19 01:05:24;;;;;;;5.43;3.47;;;;;;;;;;10524625;28;20055;-81
2022/10/19 01:10:37;;;;;;;6.65;3.25;;;;;;;;;;10523867;28;20051;-80
2022/10/19 01:15:47;;;;;;;7.22;3.40;;;;;;;;;;10523506;28;20039;-81
2022/10/19 01:21:18;;;;;;;5.43;3.30;;;;;;;;;;10525223;28;20055;-83
2022/10/19 01:26:57;;;;;;;6.57;4.05;;;;;;;;;;10519542;28;20044;-81
2022/10/19 01:32:07;;;;;;;6.93;3.72;;;;;;;;;;10482129;28;20435;-80
2022/10/19 01:37:18;;;;;;;6.22;3.67;;;;;;;;;;10524387;28;20046;-81
2022/10/19 01:42:29;;;;;;;6.05;3.70;;;;;;;;;;10529202;28;20037;-79
2022/10/19 01:47:39;;;;;;;5.63;3.90;;;;;;;;;;10528182;28;20051;-80
2022/10/19 01:52:43;;;;;;;6.25;3.20;;;;;;;;;;10527939;28;20040;-79
2022/10/19 01:57:48;;;;;;;6.45;3.33;;;;;;;;;;10528158;28;20055;-80
2022/10/19 02:02:55;;;;;;;5.63;3.03;;;;;;;;;;10546732;28;20101;-82
2022/10/19 02:08:03;;;;;;;4.32;2.72;;;;;;;;;;10530542;28;20040;-81
2022/10/19 02:13:07;;;;;;;3.58;2.63;;;;;;;;;;10547125;28;20029;-80
2022/10/19 02:18:13;;;;;;;4.57;2.67;;;;;;;;;;10530603;28;20232;-80
2022/10/19 02:23:21;;;;;;;4.32;3.08;;;;;;;;;;10530387;28;20044;-81
2022/10/19 02:28:26;;;;;;;4.75;2.80;;;;;;;;;;10529073;28;20040;-80
2022/10/19 02:33:31;;;;;;;4.38;2.97;;;;;;;;;;10528908;28;20042;-79
2022/10/19 02:38:35;;;;;;;5.35;2.53;;;;;;;;;;10529208;28;20036;-81
2022/10/19 02:43:40;;;;;;;3.38;2.70;;;;;;;;;;10527746;28;20067;-79
2022/10/19 02:48:46;;;;;;;6.20;2.53;;;;;;;;;;10527759;28;20036;-79
2022/10/19 02:53:49;;;;;;;3.97;2.70;;;;;;;;;;10528361;28;20040;-80
2022/10/19 02:58:53;;;;;;;4.15;2.85;;;;;;;;;;10532659;28;20048;-81
2022/10/19 03:04:00;;;;;;;;;;;;;;;;;;10529063;28;20043;-79
2022/10/19 03:09:03;;;;;;;3.53;2.55;;;;;;;;;;10528235;28;19924;-81
2022/10/19 03:14:07;;;;;;;5.22;3.40;;;;;;;;;;10544190;28;20040;-80
2022/10/19 03:19:13;;;;;;;5.43;2.88;;;;;;;;;;10526249;28;20044;-80
2022/10/19 03:24:16;;;;;;;;;;;;;;;;;;10527552;28;20040;-82
2022/10/19 03:29:20;;;;;;;3.28;2.65;;;;;;;;;;10542392;28;19920;-80
2022/10/19 03:34:25;;;;;;;4.18;3.10;;;;;;;;;;10524780;28;20032;-80
2022/10/19 03:39:28;;;;;;;5.15;3.60;;;;;;;;;;10530141;28;20047;-80
2022/10/19 03:44:31;;;;;;;5.43;3.67;;;;;;;;;;10525891;28;20143;-81
2022/10/19 03:49:36;;;;;;;6.60;3.70;;;;;;;;;;10525240;28;20539;-79
2022/10/19 03:54:40;;;;;;;3.63;2.78;;;;;;;;;;10517519;28;20040;-81
2022/10/19 03:59:43;;;;;;;2.90;2.15;;;;;;;;;;10525312;28;20051;-80
2022/10/19 04:04:48;;;;;;;3.08;2.00;;;;;;;;;;10527764;28;20040;-81
2022/10/19 04:09:51;;;;;;;5.00;2.53;;;;;;;;;;10523727;28;20040;-81
2022/10/19 04:14:54;;;;;;;6.68;3.58;;;;;;;;;;10524662;28;20043;-81
2022/10/19 04:20:01;;;;;;;5.07;3.30;;;;;;;;;;10525342;28;20040;-80
2022/10/19 04:25:05;;;;;;;6.97;2.88;;;;;;;;;;10523576;28;20036;-81
2022/10/19 04:30:09;;;;;;;4.45;2.65;;;;;;;;;;10525704;28;20331;-80
2022/10/19 04:35:14;;;;;;;4.10;2.50;;;;;;;;;;10528290;28;20040;-80
2022/10/19 04:40:17;;;;;;;4.20;2.80;;;;;;;;;;10529918;28;20051;-80
2022/10/19 04:45:24;;;;;;;6.43;2.75;;;;;;;;;;10520351;28;20044;-80
2022/10/19 04:50:28;;;;;;;;;;;;;;;;;;10525707;28;20051;-81
2022/10/19 04:55:32;;;;;;;6.28;2.60;;;;;;;;;;10524070;28;20387;-83
2022/10/19 05:00:37;;;;;;;3.85;2.50;;;;;;;;;;10525509;28;20052;-82
2022/10/19 05:05:42;;;;;;;4.05;2.80;;;;;;;;;;10541904;28;20427;-81
2022/10/19 05:10:45;;;;;;;4.78;3.15;;;;;;;;;;10525859;28;20047;-81
2022/10/19 05:15:56;;;;;;;3.75;2.40;;;;;;;;;;10526459;28;20113;-80
2022/10/19 05:21:05;;;;;;;4.03;2.63;;;;;;;;;;10542648;28;20408;-80
2022/10/19 05:26:11;;;;;;;3.90;2.58;;;;;;;;;;10526790;28;20048;-82
2022/10/19 05:31:16;;;;;;;6.25;2.90;;;;;;;;;;10525473;28;20044;-77
2022/10/19 05:36:24;;;;;;;7.45;3.63;;;;;;;;;;10524889;28;20126;-82
2022/10/19 05:41:28;;;;;;;5.22;3.13;;;;;;;;;;10525159;28;20044;-83
2022/10/19 05:46:32;;;;;;;3.67;2.55;;;;;;;;;;10542764;28;20036;-83
2022/10/19 05:51:37;;;;;;;3.40;2.58;;;;;;;;;;10518552;28;20047;-77
2022/10/19 05:56:41;;;;;;;3.78;2.90;;;;;;;;;;10529420;28;20044;-79
2022/10/19 06:01:45;;;;;;;5.10;2.83;;;;;;;;;;10531668;28;20058;-84
2022/10/19 06:06:50;;;;;;;4.80;3.00;;;;;;;;;;10530226;28;20048;-84
2022/10/19 06:11:53;;;;;;;4.22;2.60;;;;;;;;;;10527487;28;20048;-84
2022/10/19 06:16:56;;;;;;;5.47;2.72;;;;;;;;;;10532586;28;20056;-80
2022/10/19 06:22:01;;;;;;;5.35;3.40;;;;;;;;;;10532255;28;20044;-83
2022/10/19 06:27:05;;;;;;;5.65;3.28;;;;;;;;;;10538050;28;20037;-81
2022/10/19 06:32:08;;;;;;;3.47;2.60;;;;;;;;;;10554018;28;20047;-82
2022/10/19 06:37:13;;;;;;;4.28;2.47;;;;;;;;;;10541380;28;20363;-83
2022/10/19 06:42:16;;;;;;;2.80;2.15;;;;;;;;;;10535839;28;20055;-82
2022/10/19 06:47:20;;;;;;;2.92;2.20;;;;;;;;;;10536467;28;20044;-77
2022/10/19 06:52:24;;;;;;;3.05;2.05;;;;;;;;;;10535437;28;20044;-82
2022/10/19 06:57:28;;;;;;;2.90;1.85;;;;;;;;;;10538931;28;20789;-81
2022/10/19 07:02:31;;;;;;;3.25;1.95;;;;;;;;;;10537857;28;20042;-83
2022/10/19 07:07:36;;;;;;;2.80;2.15;;;;;;;;;;10538519;28;20158;-83
2022/10/19 07:12:39;;;;;;;5.40;2.92;;;;;;;;;;10550074;28;20039;-82
2022/10/19 07:17:42;;;;;;;4.25;2.97;;;;;;;;;;10532287;28;20070;-77
2022/10/19 07:22:47;;;;;;;6.22;2.80;;;;;;;;;;10531021;28;20507;-80
2022/10/19 07:27:50;;;;;;;3.70;2.60;;;;;;;;;;10529291;28;20048;-82
2022/10/19 07:32:54;;;;;;;5.03;2.67;;;;;;;;;;10531608;28;20044;-80
2022/10/19 07:37:58;;;;;;;4.70;2.50;;;;;;;;;;10528771;28;20044;-79
2022/10/19 07:43:02;;;;;;;2.70;2.15;;;;;;;;;;10546242;28;20047;-81
2022/10/19 07:48:05;;;;;;;4.15;2.25;;;;;;;;;;10528743;28;20055;-82
2022/10/19 07:53:10;;;;;;;2.75;2.15;;;;;;;;;;10529023;28;20036;-82
2022/10/19 07:58:13;;;;;;;3.60;2.63;;;;;;;;;;10529308;28;20454;-80
2022/10/19 08:03:17;;;;;;;3.95;2.50;;;;;;;;;;10528555;28;20500;-81
2022/10/19 08:08:42;;;;;;;3.45;2.35;;;;;;;;;;10526748;28;20040;-82
2022/10/19 08:13:45;;;;;;;3.63;2.40;;;;;;;;;;10526978;28;20522;-82
2022/10/19 08:18:49;;;;;;;5.78;2.70;;;;;;;;;;10526711;28;20524;-82
2022/10/19 08:23:54;;;;;;;3.60;2.00;;;;;;;;;;10525797;28;20044;-83
2022/10/19 08:29:01;;;;;;;3.70;1.85;;;;;;;;;;10542706;28;20047;-78
2022/10/19 08:34:04;;;;;;;3.00;1.98;;;;;;;;;;10532092;28;20393;-81
2022/10/19 08:39:11;;;;;;;3.85;2.47;;;;;;;;;;10529077;28;20063;-82
2022/10/19 08:44:33;;;;;;;3.42;2.40;;;;;;;;;;10531395;28;20058;-81
2022/10/19 08:49:36;;;;;;;4.43;2.53;;;;;;;;;;10522348;28;20040;-83
2022/10/19 08:54:49;;;;;;;1.95;1.77;;;;;;;;;;10527097;28;20046;-81
2022/10/19 08:59:58;;;;;;;2.10;1.67;;;;;;;;;;10527982;28;20047;-81
2022/10/19 09:05:13;;;;;;;3.15;1.70;;;;;;;;;;10527039;28;20036;-82
2022/10/19 09:10:24;;;;;;;2.25;1.73;;;;;;;;;;10527362;28;20643;-82
2022/10/19 09:15:32;;;;;;;3.72;2.40;;;;;;;;;;10543206;28;20043;-80
2022/10/19 09:20:40;;;;;;;6.28;2.40;;;;;;;;;;10541416;28;20499;-78
2022/10/19 09:25:45;;;;;;;4.75;2.00;;;;;;;;;;10524781;28;20032;-82
2022/10/19 09:30:51;;;;;;;3.60;2.30;;;;;;;;;;10525805;28;20036;-82
2022/10/19 09:35:55;;;;;;;2.67;2.08;;;;;;;;;;10525125;28;20048;-82
2022/10/19 09:41:15;;;;;;;3.58;2.05;;;;;;;;;;10544701;28;20448;-82
2022/10/19 09:46:29;;;;;;;4.30;2.65;;;;;;;;;;10523258;28;20036;-80
2022/10/19 09:51:51;;;;;;;4.40;2.08;;;;;;;;;;10539907;28;20117;-80
2022/10/19 09:56:56;;;;;;;3.70;2.03;;;;;;;;;;10517995;28;20405;-82
2022/10/19 10:09:29;;;;;;;2.80;1.98;;;;;;;;;;10390800;28;20329;-80
2022/10/19 10:14:38;;;;;;;3.97;2.03;;;;;;;;;;10680704;22;20052;-81
2022/10/19 10:19:51;;;;;;;4.60;2.50;;;;;;;;;;10460585;28;20049;-81
2022/10/19 10:24:56;;;;;;;4.13;2.08;;;;;;;;;;10487668;28;20056;-80
2022/10/19 10:30:07;;;;;;;5.60;2.70;;;;;;;;;;10485315;28;20044;-80
2022/10/19 10:35:18;;;;;;;4.85;2.30;;;;;;;;;;10489317;28;20506;-81
2022/10/19 10:40:25;;;;;;;2.17;1.70;;;;;;;;;;10481830;28;20048;-81
2022/10/19 10:45:33;;;;;;;1.77;1.60;;;;;;;;;;10466603;28;20037;-78
2022/10/19 10:50:37;;;;;;;3.95;2.20;;;;;;;;;;10481678;28;20527;-80
2022/10/19 10:55:40;;;;;;;2.13;1.80;;;;;;;;;;10491920;28;20048;-80
2022/10/19 11:00:46;;;;;;;5.22;1.85;;;;;;;;;;10484029;28;20039;-80
2022/10/19 11:05:55;;;;;;;4.93;2.50;;;;;;;;;;10483057;28;20047;-80
2022/10/19 11:11:04;;;;;;;4.35;2.40;;;;;;;;;;10489034;28;20036;-80
2022/10/19 11:16:13;;;;;;;6.20;2.50;;;;;;;;;;10477856;28;20049;-80
2022/10/19 11:21:24;;;;;;;3.10;1.83;;;;;;;;;;10479848;28;20287;-80
2022/10/19 11:26:42;;;;;;;4.10;2.45;;;;;;;;;;10488103;28;20040;-80
2022/10/19 11:31:49;;;;;;;5.85;1.98;;;;;;;;;;10475024;28;20052;-79
2022/10/19 11:37:02;;;;;;;4.38;2.03;;;;;;;;;;10479904;28;20053;-80
2022/10/19 11:42:13;;;;;;;3.05;1.77;;;;;;;;;;10472214;28;20056;-80
2022/10/19 11:47:31;;;;;;;3.88;2.75;;;;;;;;;;10472095;28;20051;-81
2022/10/19 11:52:45;;;;;;;2.80;1.55;;;;;;;;;;10472571;28;20041;-81
2022/10/19 11:57:53;;;;;;;3.38;1.80;;;;;;;;;;10466115;28;20504;-80
2022/10/19 12:03:16;;;;;;;3.05;1.98;;;;;;;;;;10480474;28;20055;-80
2022/10/19 12:08:32;;;;;;;3.78;2.03;;;;;;;;;;10479457;28;20040;-79
2022/10/19 12:13:42;;;;;;;3.25;1.70;;;;;;;;;;10469254;28;20109;-80
2022/10/19 12:18:48;;;;;;;4.95;1.77;;;;;;;;;;10469431;28;20036;-80
2022/10/19 12:23:53;;;;;;;2.63;1.80;;;;;;;;;;10482093;28;20047;-81
2022/10/19 12:29:00;;;;;;;3.30;2.30;;;;;;;;;;10484124;28;20029;-80
2022/10/19 12:34:13;;;;;;;6.75;2.72;;;;;;;;;;10482898;28;20056;-80
2022/10/19 12:39:23;;;;;;;5.25;2.38;;;;;;;;;;10469644;28;20048;-79
2022/10/19 12:44:48;;;;;;;4.15;1.75;;;;;;;;;;10460026;28;20805;-82
2022/10/19 12:49:54;;;;;;;4.00;1.98;;;;;;;;;;10478929;28;20512;-78
2022/10/19 12:55:11;;;;;;;2.50;1.58;;;;;;;;;;10467485;28;20036;-79
2022/10/19 13:00:21;;;;;;;1.88;1.30;;;;;;;;;;10470964;28;20382;-80
2022/10/19 13:05:29;;;;;;;2.00;1.05;;;;;;;;;;10475108;28;20048;-83
2022/10/19 13:10:33;;;;;;;4.32;1.65;;;;;;;;;;10468682;28;20052;-79
2022/10/19 13:15:57;;;;;;;5.22;1.27;;;;;;;;;;10484737;28;20051;-81
2022/10/19 13:21:02;;;;;;;2.40;1.40;;;;;;;;;;10482484;28;20040;-80
2022/10/19 13:26:32;;;;;;;4.75;1.60;;;;;;;;;;10476936;28;20048;-80
2022/10/19 13:31:36;;;;;;;2.45;1.40;;;;;;;;;;10477724;28;20139;-81
2022/10/19 13:37:00;;;;;;;3.25;1.45;;;;;;;;;;10499998;28;20049;-81
2022/10/19 13:42:03;;;;;;;2.03;1.40;;;;;;;;;;10481093;28;20059;-81
2022/10/19 13:47:28;;;;;;;2.47;1.40;;;;;;;;;;10472295;28;20036;-80
2022/10/19 13:52:52;;;;;;;2.28;1.33;;;;;;;;;;10459086;28;20115;-81
2022/10/19 13:58:23;;;;;;;3.55;1.45;;;;;;;;;;10473285;28;20056;-83
2022/10/19 14:03:43;;;;;;;2.67;1.55;;;;;;;;;;10496055;28;20056;-81
2022/10/19 14:09:19;;;;;;;3.20;1.83;;;;;;;;;;10480906;28;20423;-78
2022/10/19 14:14:24;;;;;;;2.28;1.70;;;;;;;;;;10455962;28;20041;-80
2022/10/19 14:19:30;;;;;;;4.43;2.00;;;;;;;;;;10479019;28;20345;-79
2022/10/19 14:24:36;;;;;;;3.30;1.83;;;;;;;;;;10493705;28;20049;-79
2022/10/19 14:29:46;;;;;;;3.22;2.15;;;;;;;;;;10500677;28;20047;-78
2022/10/19 14:34:49;;;;;;;4.15;1.58;;;;;;;;;;10483790;28;20467;-80
2022/10/19 14:40:06;;;;;;;4.90;1.92;;;;;;;;;;10492906;28;20055;-80
2022/10/19 14:45:16;;;;;;;3.90;1.58;;;;;;;;;;10485194;28;20059;-79
2022/10/19 14:50:22;;;;;;;1.65;1.35;;;;;;;;;;10488804;28;20428;-80
2022/10/19 14:55:32;;;;;;;4.73;1.50;;;;;;;;;;10500517;28;20059;-81
2022/10/19 15:00:35;;;;;;;3.05;1.65;;;;;;;;;;10494907;28;20044;-79
2022/10/19 15:05:47;;;;;;;2.63;1.20;;;;;;;;;;10501880;28;20041;-79
2022/10/19 15:10:52;;;;;;;2.00;1.05;;;;;;;;;;10485542;28;20055;-80
2022/10/19 15:15:56;;;;;;;1.67;1.00;;;;;;;;;;10494186;28;20057;-78
2022/10/19 15:21:05;;;;;;;3.15;1.13;;;;;;;;;;10495458;28;20071;-79
2022/10/19 15:26:19;;;;;;;2.17;1.05;;;;;;;;;;10495819;28;20043;-79
2022/10/19 15:31:26;;;;;;;2.10;1.40;;;;;;;;;;10473356;28;20052;-80
2022/10/19 15:36:31;;;;;;;6.53;1.45;;;;;;;;;;10481372;28;20045;-79
2022/10/19 15:41:38;;;;;;;3.35;2.40;;;;;;;;;;10486240;28;20036;-80
2022/10/19 15:47:17;;;;;;;4.22;1.85;;;;;;;;;;10487621;28;20052;-80
2022/10/19 15:52:22;;;;;;;2.08;1.40;;;;;;;;;;10481739;28;20071;-77
2022/10/19 15:57:30;;;;;;;2.35;1.52;;;;;;;;;;10478955;28;20048;-79
2022/10/19 16:02:34;;;;;;;2.92;1.90;;;;;;;;;;10487542;28;20040;-80
2022/10/19 16:07:39;;;;;;;2.70;1.27;;;;;;;;;;10474055;28;20033;-80
2022/10/19 16:12:44;;;;;;;2.90;1.75;;;;;;;;;;10470751;28;20064;-76
2022/10/19 16:17:49;;;;;;;2.28;1.50;;;;;;;;;;10478468;28;20037;-80
2022/10/19 16:22:53;;;;;;;2.00;1.58;;;;;;;;;;10460742;28;20761;-76
2022/10/19 16:27:58;;;;;;;2.78;1.40;;;;;;;;;;10486592;28;20067;-76
2022/10/19 16:33:01;;;;;;;1.33;1.23;;;;;;;;;;10478065;28;20055;-80
2022/10/19 16:38:05;;;;;;;1.70;1.40;;;;;;;;;;10474178;28;20064;-81
2022/10/19 16:43:09;;;;;;;1.75;1.30;;;;;;;;;;10475585;28;20127;-79
2022/10/19 16:48:13;;;;;;;2.97;1.83;;;;;;;;;;10464023;28;20079;-79
2022/10/19 16:53:16;;;;;;;3.47;1.70;;;;;;;;;;10472680;28;20108;-78
2022/10/19 16:58:21;;;;;;;1.85;1.65;;;;;;;;;;10485398;28;20051;-80
2022/10/19 17:03:24;;;;;;;2.78;1.70;;;;;;;;;;10478366;28;20045;-79
2022/10/19 17:08:27;;;;;;;3.00;2.15;;;;;;;;;;10478351;28;20461;-79
2022/10/19 17:13:34;;;;;;;2.53;2.00;;;;;;;;;;10479323;28;20311;-79
2022/10/19 17:18:37;;;;;;;5.57;1.63;;;;;;;;;;10479262;28;20131;-78
2022/10/19 17:23:42;;;;;;;2.42;1.75;;;;;;;;;;10483272;28;20110;-80
2022/10/19 17:28:48;;;;;;;2.17;1.60;;;;;;;;;;10467783;28;20047;-79
2022/10/19 17:33:51;;;;;;;2.13;1.47;;;;;;;;;;10473205;28;20060;-79
2022/10/19 17:38:55;;;;;;;2.72;2.00;;;;;;;;;;10469935;28;20060;-79
2022/10/19 17:44:00;;;;;;;2.42;1.90;;;;;;;;;;10483826;28;20049;-79
2022/10/19 17:49:04;;;;;;;2.70;1.60;;;;;;;;;;10475620;28;20036;-79
2022/10/19 17:54:10;;;;;;;1.58;1.20;;;;;;;;;;10467588;28;20048;-79
2022/10/19 17:59:15;;;;;;;1.58;1.35;;;;;;;;;;10467495;28;20036;-80
2022/10/19 18:04:18;;;;;;;3.67;2.50;;;;;;;;;;10475533;28;20036;-80
2022/10/19 18:09:22;;;;;;;3.00;2.40;;;;;;;;;;10480064;28;20044;-79
2022/10/19 18:14:26;;;;;;;2.90;2.08;;;;;;;;;;10473155;28;20037;-80
2022/10/19 18:19:30;;;;;;;2.28;1.90;;;;;;;;;;10481612;28;20067;-79
2022/10/19 18:24:33;;;;;;;3.55;2.30;;;;;;;;;;10458952;28;20070;-80
2022/10/19 18:29:38;;;;;;;2.20;1.92;;;;;;;;;;10467873;28;20041;-80
2022/10/19 18:34:41;;;;;;;3.65;2.50;;;;;;;;;;10480857;28;20049;-79
2022/10/19 18:39:44;;;;;;;2.85;2.35;;;;;;;;;;10478783;28;20708;-79
2022/10/19 18:44:49;;;;;;;4.10;2.53;;;;;;;;;;10467375;28;20045;-79
2022/10/19 18:49:54;;;;;;;5.22;2.65;;;;;;;;;;10504088;28;20044;-78
2022/10/19 18:54:58;;;;;;;3.70;2.50;;;;;;;;;;10494842;28;20060;-79
2022/10/19 19:00:03;;;;;;;3.25;2.30;;;;;;;;;;10487374;28;20131;-79
2022/10/19 19:05:07;;;;;;;3.53;2.13;;;;;;;;;;10485945;28;20039;-79
2022/10/19 19:10:11;;;;;;;2.80;2.00;;;;;;;;;;10484361;28;20044;-77
2022/10/19 19:15:18;;;;;;;3.65;2.15;;;;;;;;;;10484201;28;20040;-78
2022/10/19 19:20:21;;;;;;;2.30;1.85;;;;;;;;;;10473823;28;20064;-79
2022/10/19 19:25:25;;;;;;;2.53;1.98;;;;;;;;;;10486270;28;20049;-80
2022/10/19 19:30:29;;;;;;;2.55;2.00;;;;;;;;;;10485168;28;20040;-79
2022/10/19 19:35:33;;;;;;;2.35;1.85;;;;;;;;;;10480561;28;20037;-80
2022/10/19 19:40:40;;;;;;;3.92;1.88;;;;;;;;;;10482340;28;20036;-78
2022/10/19 19:45:54;;;;;;;3.15;1.92;;;;;;;;;;10478219;28;20127;-80
2022/10/19 19:51:03;;;;;;;1.98;1.67;;;;;;;;;;10468136;28;20049;-80
2022/10/19 19:56:07;;;;;;;2.83;2.05;;;;;;;;;;10490728;28;20047;-77
2022/10/19 20:01:14;;;;;;;2.97;2.38;;;;;;;;;;10486190;28;20260;-78
2022/10/19 20:06:19;;;;;;;4.22;2.40;;;;;;;;;;10471634;28;20050;-79
2022/10/19 20:11:24;;;;;;;2.90;2.17;;;;;;;;;;10484405;28;20473;-80
2022/10/19 20:16:30;;;;;;;4.90;2.78;;;;;;;;;;10475365;28;20049;-80
2022/10/19 20:21:34;;;;;;;2.97;2.60;;;;;;;;;;10485594;28;20077;-79
2022/10/19 20:26:37;;;;;;;3.88;2.55;;;;;;;;;;10484225;28;20048;-80
2022/10/19 20:31:42;;;;;;;3.28;2.38;;;;;;;;;;10475554;28;20033;-79
2022/10/19 20:36:45;;;;;;;3.05;2.15;;;;;;;;;;10493588;28;20563;-80
2022/10/19 20:41:48;;;;;;;2.65;2.20;;;;;;;;;;10479490;28;20532;-79
2022/10/19 20:46:53;;;;;;;4.18;2.10;;;;;;;;;;10471280;28;20135;-79
2022/10/19 20:51:56;;;;;;;4.28;2.90;;;;;;;;;;10475492;28;20044;-79
2022/10/19 20:57:00;;;;;;;5.95;3.88;;;;;;;;;;10462300;28;20539;-78
2022/10/19 21:02:04;;;;;;;6.35;3.80;;;;;;;;;;10478578;28;20051;-78
2022/10/19 21:07:08;;;;;;;4.32;2.70;;;;;;;;;;10472734;28;20040;-78
2022/10/19 21:12:11;;;;;;;4.40;2.95;;;;;;;;;;10481227;28;20528;-77
2022/10/19 21:17:16;;;;;;;5.40;2.88;;;;;;;;;;10474136;28;20044;-79
2022/10/19 21:22:19;;;;;;;5.00;2.67;;;;;;;;;;10493079;28;20048;-79
2022/10/19 21:27:22;;;;;;;3.50;1.95;;;;;;;;;;10469104;28;20041;-80
2022/10/19 21:32:27;;;;;;;3.10;1.90;;;;;;;;;;10479864;28;20048;-81
2022/10/19 21:37:30;;;;;;;2.58;1.98;;;;;;;;;;10480290;28;20047;-79
2022/10/19 21:42:33;;;;;;;3.15;2.08;;;;;;;;;;10475930;28;20049;-79
2022/10/19 21:47:38;;;;;;;2.63;1.95;;;;;;;;;;10475354;28;20546;-77
2022/10/19 21:52:41;;;;;;;5.03;2.95;;;;;;;;;;10477713;28;20032;-78
2022/10/19 21:57:46;;;;;;;2.40;1.70;;;;;;;;;;10484064;28;20045;-79
2022/10/19 22:02:51;;;;;;;2.50;2.08;;;;;;;;;;10476435;28;20540;-81
2022/10/19 22:07:54;;;;;;;3.72;2.20;;;;;;;;;;10484241;28;20520;-81
2022/10/19 22:12:57;;;;;;;3.17;1.98;;;;;;;;;;10475224;28;20051;-81
2022/10/19 22:18:02;;;;;;;4.22;1.95;;;;;;;;;;10483158;28;20036;-80
2022/10/19 22:23:06;;;;;;;2.00;1.70;;;;;;;;;;10484440;28;20520;-81
2022/10/19 22:28:10;;;;;;;3.78;1.80;;;;;;;;;;10473504;28;20044;-81
2022/10/19 22:33:14;;;;;;;3.85;2.50;;;;;;;;;;10472560;28;20045;-82
2022/10/19 22:38:17;;;;;;;7.35;2.13;;;;;;;;;;10501711;28;20055;-81
2022/10/19 22:43:21;;;;;;;2.85;2.45;;;;;;;;;;10465673;28;20040;-78
2022/10/19 22:48:25;;;;;;;3.50;2.40;;;;;;;;;;10484291;28;20520;-80
2022/10/19 22:53:29;;;;;;;4.47;2.05;;;;;;;;;;10477865;28;20564;-80
2022/10/19 22:58:32;;;;;;;2.90;2.10;;;;;;;;;;10467242;28;20422;-80
2022/10/19 23:03:38;;;;;;;2.50;1.98;;;;;;;;;;10466100;28;20041;-80
2022/10/19 23:08:42;;;;;;;3.78;2.33;;;;;;;;;;10482779;28;20048;-80
2022/10/19 23:13:45;;;;;;;2.50;1.90;;;;;;;;;;10481206;28;20044;-80
2022/10/19 23:18:49;;;;;;;4.07;2.78;;;;;;;;;;10482012;28;20052;-80
2022/10/19 23:23:53;;;;;;;1.83;1.58;;;;;;;;;;10490380;28;20132;-80
2022/10/19 23:28:56;;;;;;;3.00;1.83;;;;;;;;;;10481989;28;20032;-80
2022/10/19 23:34:01;;;;;;;6.43;2.03;;;;;;;;;;10481148;28;20048;-80
2022/10/19 23:39:04;;;;;;;5.38;2.53;;;;;;;;;;10484122;28;20048;-80
2022/10/19 23:44:09;;;;;;;5.68;2.53;;;;;;;;;;10474384;28;20086;-80
2022/10/19 23:49:13;;;;;;;3.70;2.13;;;;;;;;;;10475165;28;20044;-79
2022/10/19 23:54:17;;;;;;;2.88;1.80;;;;;;;;;;10479324;28;20037;-80
2022/10/19 23:59:20;;;;;;;3.38;2.00;;;;;;;;;;10478439;28;20572;-80
